Fort Gay, West Virginia
Current Conditions -  °F | °C
As of 7:51 PM on Friday 28 Nov 2014 (Local Time) from KHTS Reporting Station
Clear Clear  
Wind Chill: 23°   Ceiling: Unl
Heat Index: 28°   Visibility: 10mi
Dew Point: 18°   Wind: 5mph
Humidity: 66%   Direction: 100°E
Pressure: 30.21"   Gusts: NA
Location:  38.12°N, 82.6°W
Report Text: KHTS 290051Z 10004KT 10SM CLR M02/M08 A3021 RMK AO2 SLP238 T10221078
Loading
Personal Weather Stations






























Interactive Weather Map New forecast layout! Learn more

10-Day Weather Forecast

Advertisements
Track Severe Weather on mobile